Bentleyville, Ohio
Current Conditions -  °F | °C
As of 6:45 PM on Wednesday 28 Jan 2015 (Local Time) from KCGF Reporting Station
Broken Clouds Broken Clouds  
Wind Chill: 17°   Ceiling: 20000
Heat Index: 25°   Visibility: 10mi
Dew Point: 16°   Wind: 7mph
Humidity: 69%   Direction: 160°SSE
Pressure: 30.28"   Gusts: NA
Location:  41.4475°N, 81.4018°W
Report Text: KCGF 282345Z 16006KT 10SM SCT100 BKN200 M04/M09 A3028
Loading
Personal Weather Stations






























Interactive Weather Map New forecast layout! Learn more

10-Day Weather Forecast

Advertisements
Track Severe Weather on mobile